Copper Center, AK (99573)

8:05 PM AKDT on July 31, 2014 (GMT -0800)
Klutina River (KAKCOPPE3) Elev 1100 ft | 61.95 °N, 145.32 °W | Change Station

Current weather conditions updated 0 second ago

Mostly Cloudy
Mostly Cloudy
72.0 °F
Feels Like 77 °F
N
0.0
Wind Variable Wind from East
Gusts 7.0 mph

Tomorrow is forecast to be Cooler than today.

Today
High -- | Low -- °F
--% Chance of Precip.
Yesterday
High -- | Low -- °F
Precip. -- in
5:06 AM 10:27 PM
Waxing Crescent, 23% visible
Pressure 30.19 in
Visibility 10.0 miles
Clouds Few 7000 ft
Mostly Cloudy 10000 ft
Heat Index 77 °F
Dew Point 47 °F
Humidity 41%
Rainfall 0.00 in
Snow Depth Not available.
UV 1 out of 12
Pollen Not available.
Air Quality Not available.
Flu Activity Not available.
METAR PAGK 010353Z AUTO 31004KT 10SM FEW070 BKN100 21/09 A3019 RMK AO2 SLP222 T02060094 TSNO $

More Conditions Fewer Conditions

Pressure 30.19 in
Visibility 10.0 miles
Clouds Few 7000 ft
Mostly Cloudy 10000 ft
Heat Index 77 °F
Dew Point 47 °F
Humidity 41%
Rainfall 0.00 in
Snow Depth Not available.
UV 1 out of 12
Pollen Not available.
Air Quality Not available.
Flu Activity Not available.
METAR PAGK 010353Z AUTO 31004KT 10SM FEW070 BKN100 21/09 A3019 RMK AO2 SLP222 T02060094 TSNO $

More Conditions Fewer Conditions

10-Day Weather Forecast

Almanac

Astronomy

Jul. 31, 2014 Rise Set
Actual Time 5:06 AM AKDT 10:27 PM AKDT
Civil Twilight 3:54 AM AKDT 11:37 PM AKDT
Nautical Twilight 2:20 AM AKDT 1:15 AM AKDT
Astronomical Twilight Sun does not rise Sun does not rise
Moon 11:25 AM AKDT (7/31) 10:56 PM AKDT (7/31)
Length of Visible Light 19h 42m
Length of Day
17h 21m
Tomorrow will be 5m 29s shorter.
Waxing Crescent, 23% of the Moon is Illuminated
Aug 1
Waxing Crescent
Aug 3
First Quarter
Aug 10
Full
Aug 17
Last Quarter
Aug 25
New

Today's Extremes

State Highs State Lows

Community

WunderPhotos

Upload Photos

1,739,508 photos uploaded!

Nearby

Snow Depth

Station Depth Elevation
Upper Tsaina River 0 in 1750 ft
Granite Creek 0 in 1240 ft
Indian Pass 1 in 2300 ft
Turnagain Pass 0 in 1880 ft
Susitna Valley High 1 in 375 ft

Earthquake Activity

City Distance Mag. Time & Date
No recent earthquake activity has been reported nearby.
Minimum magnitude displayed is 2.5.

Coastal Water Temperatures

Place Temperature
No Stations Reporting

Nearby Weather Stations

Station Location Temp. Heat Index Dew Point Humidity Wind Precip. Elev Updated Type
Klutina River, Copper Center, AK 72.0 °F 77 °F 47 °F 41% East  at  0.0 mph 0.00 in / hr 1100 ft 8:05 PM AKDT Normal
AKDOT Richardson Highway @ Edgerton High, Copper Center, AK 69 °F - 68 °F 96% East  at  2 mph 0.00 in / hr 2080 ft 7:22 PM AKDT MADIS
AKDOT Glenn Highway @ MP 176.6, Glennallen, AK 71 °F 77 °F 46 °F 40% NW  at  1 mph 0.00 in / hr 2112 ft 7:25 PM AKDT MADIS
RAWS KLAWASI AK, Gakona, AK 65 °F - 42 °F 43% WNW  at  3 mph 0.00 in / hr 3100 ft 6:56 PM AKDT MADIS

Show More Stations Show Fewer Stations